Time;durP1;ratioP1;P1;durP2;ratioP2;P2;SDS_P1;SDS_P2;PMS_P1;PMS_P2;Temp;Humidity;BMP_temperature;BMP_pressure;BME280_temperature;BME280_humidity;BME280_pressure;Samples;Min_cycle;Max_cycle;Signal;HPM_P1;HPM_P2
2023/03/17 00:00:47;;;;;;;17.60;11.75;;;;;;;;;;5089759;22;20040;-66
2023/03/17 00:03:21;;;;;;;19.67;11.73;;;;;;;;;;5089006;28;20028;-66
2023/03/17 00:05:47;;;;;;;16.30;11.15;;;;;;;;;;5091141;28;20020;-67
2023/03/17 00:08:21;;;;;;;16.77;11.95;;;;;;;;;;5089552;28;20060;-66
2023/03/17 00:10:48;;;;;;;19.17;12.20;;;;;;;;;;5082482;28;20028;-67
2023/03/17 00:13:14;;;;;;;17.92;11.48;;;;;;;;;;5072822;28;20077;-66
2023/03/17 00:15:41;;;;;;;17.25;11.55;;;;;;;;;;5065142;28;20024;-65
2023/03/17 00:18:11;;;;;;;18.77;11.98;;;;;;;;;;5091030;28;20032;-66
2023/03/17 00:20:37;;;;;;;18.85;12.20;;;;;;;;;;5072851;28;20356;-64
2023/03/17 00:23:04;;;;;;;18.40;12.40;;;;;;;;;;5091142;28;20027;-65
2023/03/17 00:25:31;;;;;;;17.40;11.95;;;;;;;;;;5091131;28;20529;-67
2023/03/17 00:27:58;;;;;;;19.77;12.97;;;;;;;;;;5078005;28;20037;-66
2023/03/17 00:30:25;;;;;;;20.15;12.88;;;;;;;;;;5079060;28;20289;-68
2023/03/17 00:32:53;;;;;;;18.13;12.30;;;;;;;;;;5072812;28;20028;-68
2023/03/17 00:35:23;;;;;;;20.55;11.75;;;;;;;;;;5072438;28;20032;-68
2023/03/17 00:37:51;;;;;;;17.30;12.05;;;;;;;;;;5090967;28;20056;-67
2023/03/17 00:40:29;;;;;;;17.10;11.48;;;;;;;;;;5072523;28;20475;-67
2023/03/17 00:42:55;;;;;;;18.75;11.73;;;;;;;;;;5090880;28;20574;-67
2023/03/17 00:45:22;;;;;;;18.08;12.15;;;;;;;;;;5090646;28;20028;-67
2023/03/17 00:47:49;;;;;;;19.17;11.98;;;;;;;;;;5072865;28;20041;-67
2023/03/17 00:50:17;;;;;;;16.35;11.05;;;;;;;;;;5072510;28;20028;-68
2023/03/17 00:52:44;;;;;;;17.23;10.97;;;;;;;;;;5090422;28;20068;-67
2023/03/17 00:55:10;;;;;;;19.13;11.55;;;;;;;;;;5090502;28;20480;-68
2023/03/17 00:57:37;;;;;;;18.77;11.20;;;;;;;;;;5090671;28;20103;-67
2023/03/17 01:00:04;;;;;;;19.20;10.40;;;;;;;;;;5071242;28;20112;-67
2023/03/17 01:02:31;;;;;;;16.27;11.00;;;;;;;;;;5090480;28;20051;-68
2023/03/17 01:04:57;;;;;;;16.85;10.98;;;;;;;;;;5072122;28;20024;-65
2023/03/17 01:07:23;;;;;;;16.00;11.15;;;;;;;;;;5090587;28;20024;-67
2023/03/17 01:09:49;;;;;;;17.85;11.63;;;;;;;;;;5083715;28;20412;-67
2023/03/17 01:12:15;;;;;;;18.70;11.10;;;;;;;;;;5070503;28;20025;-67
2023/03/17 01:14:42;;;;;;;16.85;10.93;;;;;;;;;;5069787;28;20048;-66
2023/03/17 01:17:17;;;;;;;17.10;10.93;;;;;;;;;;5069987;28;20060;-67
2023/03/17 01:19:43;;;;;;;18.88;10.82;;;;;;;;;;5052226;28;20075;-67
2023/03/17 01:22:09;;;;;;;18.27;11.20;;;;;;;;;;5070473;28;20024;-67
2023/03/17 01:24:36;;;;;;;17.13;11.10;;;;;;;;;;5070001;28;20047;-67
2023/03/17 01:27:02;;;;;;;18.58;11.32;;;;;;;;;;5070654;28;20025;-66
2023/03/17 01:29:28;;;;;;;19.98;11.95;;;;;;;;;;5052406;28;20021;-66
2023/03/17 01:31:54;;;;;;;18.85;12.48;;;;;;;;;;5070444;28;20112;-66
2023/03/17 01:34:21;;;;;;;17.33;11.38;;;;;;;;;;5071233;28;20068;-67
2023/03/17 01:36:47;;;;;;;18.05;11.40;;;;;;;;;;5054148;28;20031;-68
2023/03/17 01:39:14;;;;;;;19.27;11.30;;;;;;;;;;5072604;28;20032;-67
2023/03/17 01:41:40;;;;;;;17.40;10.90;;;;;;;;;;5054049;28;20091;-67
2023/03/17 01:44:06;;;;;;;17.05;10.50;;;;;;;;;;5053755;28;20103;-67
2023/03/17 01:46:33;;;;;;;18.52;11.23;;;;;;;;;;5072333;28;20029;-67
2023/03/17 01:49:05;;;;;;;16.67;10.93;;;;;;;;;;5053430;28;20028;-68
2023/03/17 01:51:34;;;;;;;16.98;10.77;;;;;;;;;;5069876;28;20024;-69
2023/03/17 01:54:02;;;;;;;17.67;11.68;;;;;;;;;;5069152;28;20025;-67
2023/03/17 01:56:29;;;;;;;19.40;11.88;;;;;;;;;;5051719;28;20032;-66
2023/03/17 01:58:56;;;;;;;17.83;10.90;;;;;;;;;;5069532;28;20552;-66
2023/03/17 02:01:25;;;;;;;16.08;10.45;;;;;;;;;;5069767;28;20048;-67
2023/03/17 02:03:50;;;;;;;;;;;;;;;;;;5069995;28;20377;-67
2023/03/17 02:06:17;;;;;;;15.80;10.75;;;;;;;;;;5069624;28;19954;-66
2023/03/17 02:08:43;;;;;;;16.55;11.05;;;;;;;;;;5070032;28;20110;-67
2023/03/17 02:11:09;;;;;;;16.27;10.80;;;;;;;;;;5070919;28;20074;-68
2023/03/17 02:13:36;;;;;;;16.88;10.90;;;;;;;;;;5054919;28;20123;-66
2023/03/17 02:16:03;;;;;;;20.52;11.45;;;;;;;;;;5073181;28;20074;-67
2023/03/17 02:18:29;;;;;;;17.15;11.40;;;;;;;;;;5054786;28;20031;-67
2023/03/17 02:21:14;;;;;;;17.50;11.05;;;;;;;;;;5072958;28;20100;-67
2023/03/17 02:23:40;;;;;;;17.58;11.13;;;;;;;;;;5072702;28;20048;-67
2023/03/17 02:26:07;;;;;;;16.58;11.20;;;;;;;;;;5054868;28;20540;-67
2023/03/17 02:28:34;;;;;;;16.30;10.73;;;;;;;;;;5072944;28;20029;-67
2023/03/17 02:31:00;;;;;;;17.92;11.38;;;;;;;;;;5072799;28;20032;-67
2023/03/17 02:33:26;;;;;;;18.70;11.13;;;;;;;;;;5054336;28;20028;-67
2023/03/17 02:35:52;;;;;;;16.75;11.00;;;;;;;;;;5072872;28;20028;-66
2023/03/17 02:38:18;;;;;;;17.85;10.93;;;;;;;;;;5072466;28;20266;-67
2023/03/17 02:40:44;;;;;;;16.35;11.00;;;;;;;;;;5072630;28;20038;-66
2023/03/17 02:43:10;;;;;;;17.88;10.82;;;;;;;;;;5054525;28;20029;-66
2023/03/17 02:45:36;;;;;;;18.75;11.30;;;;;;;;;;5072727;28;20508;-66
2023/03/17 02:48:02;;;;;;;19.63;10.95;;;;;;;;;;5072723;28;20032;-67
2023/03/17 02:50:28;;;;;;;22.80;11.90;;;;;;;;;;5072311;28;20032;-67
2023/03/17 02:52:54;;;;;;;19.27;12.00;;;;;;;;;;5072257;28;20064;-67
2023/03/17 02:55:20;;;;;;;19.33;11.40;;;;;;;;;;5072116;28;20044;-67
2023/03/17 02:57:46;;;;;;;20.75;11.77;;;;;;;;;;5072494;28;20082;-67
2023/03/17 03:00:13;;;;;;;17.83;11.18;;;;;;;;;;5071967;28;20037;-67
2023/03/17 03:02:39;;;;;;;19.85;11.23;;;;;;;;;;5072117;28;20028;-68
2023/03/17 03:05:07;;;;;;;18.02;10.93;;;;;;;;;;5071991;28;20071;-66
2023/03/17 03:07:33;;;;;;;17.75;11.25;;;;;;;;;;5072029;28;20486;-67
2023/03/17 03:10:01;;;;;;;16.95;11.38;;;;;;;;;;5071920;28;20452;-68
2023/03/17 03:12:27;;;;;;;19.88;11.52;;;;;;;;;;5072168;28;20088;-67
2023/03/17 03:14:53;;;;;;;18.55;11.27;;;;;;;;;;5053804;28;20459;-68
2023/03/17 03:17:20;;;;;;;18.13;11.73;;;;;;;;;;5071734;28;20103;-67
2023/03/17 03:19:47;;;;;;;17.95;11.82;;;;;;;;;;5071903;28;20021;-66
2023/03/17 03:22:13;;;;;;;19.02;11.45;;;;;;;;;;5052858;28;20488;-67
2023/03/17 03:24:39;;;;;;;18.98;11.73;;;;;;;;;;5071443;28;20039;-68
2023/03/17 03:27:06;;;;;;;19.27;12.25;;;;;;;;;;5054091;28;20548;-66
2023/03/17 03:29:31;;;;;;;18.60;11.48;;;;;;;;;;5071744;28;20028;-67
2023/03/17 03:31:57;;;;;;;22.63;11.90;;;;;;;;;;5071589;28;20490;-67
2023/03/17 03:34:23;;;;;;;18.95;11.82;;;;;;;;;;5071299;28;20069;-67
2023/03/17 03:36:49;;;;;;;17.27;11.57;;;;;;;;;;5071783;28;20017;-67
2023/03/17 03:39:15;;;;;;;17.23;11.73;;;;;;;;;;5071544;28;20021;-68
2023/03/17 03:41:41;;;;;;;18.55;11.48;;;;;;;;;;5071552;28;20563;-67
2023/03/17 03:44:07;;;;;;;19.23;11.98;;;;;;;;;;5071206;28;20021;-66
2023/03/17 03:46:33;;;;;;;17.55;11.15;;;;;;;;;;5071400;28;20081;-66
2023/03/17 03:48:59;;;;;;;18.92;11.18;;;;;;;;;;5053377;28;20020;-67
2023/03/17 03:51:25;;;;;;;20.00;11.75;;;;;;;;;;5071434;28;20029;-67
2023/03/17 03:53:51;;;;;;;17.67;11.13;;;;;;;;;;5053097;28;20412;-67
2023/03/17 03:56:17;;;;;;;20.45;12.63;;;;;;;;;;5071050;28;20031;-67
2023/03/17 03:58:43;;;;;;;17.27;11.52;;;;;;;;;;5071243;28;20027;-67
2023/03/17 04:01:09;;;;;;;18.42;11.55;;;;;;;;;;5070949;28;20025;-67
2023/03/17 04:03:36;;;;;;;19.40;11.48;;;;;;;;;;5070809;28;20039;-66
2023/03/17 04:06:02;;;;;;;20.10;11.63;;;;;;;;;;5071093;28;20366;-68
2023/03/17 04:08:28;;;;;;;18.60;11.10;;;;;;;;;;5071008;28;20031;-67
2023/03/17 04:10:54;;;;;;;18.40;11.65;;;;;;;;;;5070771;28;20445;-67
2023/03/17 04:13:20;;;;;;;17.65;10.88;;;;;;;;;;5052768;28;20152;-67
2023/03/17 04:15:46;;;;;;;17.67;11.18;;;;;;;;;;5070895;28;20020;-67
2023/03/17 04:18:12;;;;;;;17.55;11.05;;;;;;;;;;5070341;28;20021;-67
2023/03/17 04:20:38;;;;;;;16.83;11.18;;;;;;;;;;5070654;28;20463;-68
2023/03/17 04:23:04;;;;;;;18.42;11.30;;;;;;;;;;5070834;28;20100;-67
2023/03/17 04:25:31;;;;;;;17.30;11.45;;;;;;;;;;5070665;28;20439;-67
2023/03/17 04:27:57;;;;;;;16.65;11.57;;;;;;;;;;5070423;28;20033;-66
2023/03/17 04:30:23;;;;;;;16.90;11.50;;;;;;;;;;5070429;28;20115;-65
2023/03/17 04:32:49;;;;;;;17.67;11.95;;;;;;;;;;5070400;28;20028;-66
2023/03/17 04:35:17;;;;;;;21.70;11.90;;;;;;;;;;5070291;28;20031;-67
2023/03/17 04:37:43;;;;;;;17.92;11.60;;;;;;;;;;5070213;28;20031;-67
2023/03/17 04:40:10;;;;;;;17.27;11.50;;;;;;;;;;5069971;28;20025;-67
2023/03/17 04:42:36;;;;;;;18.80;12.07;;;;;;;;;;5070307;28;20388;-68
2023/03/17 04:45:03;;;;;;;16.30;11.85;;;;;;;;;;5070077;28;20036;-68
2023/03/17 04:47:29;;;;;;;18.33;11.80;;;;;;;;;;5070115;28;20035;-66
2023/03/17 04:49:55;;;;;;;19.27;12.23;;;;;;;;;;5070059;28;20028;-67
2023/03/17 04:52:21;;;;;;;17.50;11.82;;;;;;;;;;5070066;28;20428;-67
2023/03/17 04:54:47;;;;;;;18.65;11.95;;;;;;;;;;5069998;28;20021;-65
2023/03/17 04:57:14;;;;;;;17.05;11.70;;;;;;;;;;5070087;28;20048;-67
2023/03/17 04:59:40;;;;;;;17.40;12.07;;;;;;;;;;5051999;28;20024;-66
2023/03/17 05:02:06;;;;;;;18.20;11.85;;;;;;;;;;5070280;28;20035;-65
2023/03/17 05:04:32;;;;;;;17.58;12.30;;;;;;;;;;5052239;28;20029;-67
2023/03/17 05:06:58;;;;;;;19.98;13.05;;;;;;;;;;5070483;28;20675;-67
2023/03/17 05:09:25;;;;;;;20.15;12.68;;;;;;;;;;5070017;28;20062;-67
2023/03/17 05:11:51;;;;;;;19.55;12.55;;;;;;;;;;5069818;28;20025;-67
2023/03/17 05:14:17;;;;;;;20.65;13.30;;;;;;;;;;5069717;28;20020;-67
2023/03/17 05:16:46;;;;;;;17.38;12.45;;;;;;;;;;5070075;28;20024;-66
2023/03/17 05:19:12;;;;;;;;;;;;;;;;;;5070052;28;20020;-67
2023/03/17 05:21:38;;;;;;;;;;;;;;;;;;5070468;28;19911;-67
2023/03/17 05:24:04;;;;;;;;;;;;;;;;;;5070302;28;19900;-67
2023/03/17 05:26:29;;;;;;;;;;;;;;;;;;5070417;28;19995;-67
2023/03/17 05:28:55;;;;;;;;;;;;;;;;;;5070331;28;19907;-66
2023/03/17 05:31:21;;;;;;;;;;;;;;;;;;5070367;28;19952;-66
2023/03/17 05:33:48;;;;;;;;;;;;;;;;;;5069863;28;19908;-67
2023/03/17 05:36:14;;;;;;;;;;;;;;;;;;5070330;28;19905;-67
2023/03/17 05:38:40;;;;;;;;;;;;;;;;;;5070207;28;19904;-66
2023/03/17 05:41:06;;;;;;;;;;;;;;;;;;5070155;28;19912;-67
2023/03/17 05:43:32;;;;;;;;;;;;;;;;;;5070236;28;19905;-67
2023/03/17 05:45:59;;;;;;;;;;;;;;;;;;5071379;28;19904;-66
2023/03/17 05:48:25;;;;;;;;;;;;;;;;;;5055926;28;19951;-66
2023/03/17 05:50:51;;;;;;;;;;;;;;;;;;5074114;28;19908;-66
2023/03/17 05:53:17;;;;;;;;;;;;;;;;;;5073379;28;19953;-67
2023/03/17 05:55:43;;;;;;;;;;;;;;;;;;5055816;28;19926;-66
2023/03/17 05:58:14;;;;;;;;;;;;;;;;;;5074213;28;19998;-68
2023/03/17 06:00:40;;;;;;;;;;;;;;;;;;5099668;22;19912;-59
2023/03/17 06:03:06;;;;;;;;;;;;;;;;;;5072887;28;20449;-63
2023/03/17 06:05:32;;;;;;;;;;;;;;;;;;5075152;28;19958;-63
2023/03/17 06:07:58;;;;;;;;;;;;;;;;;;5079311;28;19904;-62
2023/03/17 06:10:24;;;;;;;;;;;;;;;;;;5075026;28;20317;-64
2023/03/17 06:12:50;;;;;;;;;;;;;;;;;;5070502;28;19961;-64
2023/03/17 06:15:16;;;;;;;;;;;;;;;;;;5054895;28;19958;-64
2023/03/17 06:17:42;;;;;;;;;;;;;;;;;;5037090;28;19905;-64
2023/03/17 06:20:08;;;;;;;;;;;;;;;;;;5034721;28;19963;-65
2023/03/17 06:22:34;;;;;;;;;;;;;;;;;;5047650;28;19923;-63
2023/03/17 06:25:00;;;;;;;;;;;;;;;;;;5054284;28;19943;-64
2023/03/17 06:27:25;;;;;;;;;;;;;;;;;;5054846;28;20423;-58
2023/03/17 06:29:52;;;;;;;;;;;;;;;;;;5054459;28;19939;-64
2023/03/17 06:32:18;;;;;;;;;;;;;;;;;;5054276;28;19909;-63
2023/03/17 06:34:44;;;;;;;;;;;;;;;;;;5036356;28;20311;-64
2023/03/17 06:37:10;;;;;;;;;;;;;;;;;;5052912;28;19905;-63
2023/03/17 06:39:36;;;;;;;;;;;;;;;;;;5054234;28;19905;-64
2023/03/17 06:42:02;;;;;;;;;;;;;;;;;;5036794;28;19911;-64
2023/03/17 06:44:28;;;;;;;;;;;;;;;;;;5036246;28;20288;-64
2023/03/17 06:46:53;;;;;;;;;;;;;;;;;;5036341;28;19905;-65
2023/03/17 06:49:19;;;;;;;;;;;;;;;;;;5036123;28;20318;-65
2023/03/17 06:51:45;;;;;;;;;;;;;;;;;;5054088;28;19995;-64
2023/03/17 06:54:11;;;;;;;;;;;;;;;;;;5053825;28;20323;-64
2023/03/17 06:56:37;;;;;;;;;;;;;;;;;;5054625;28;19904;-64
2023/03/17 06:59:03;;;;;;;;;;;;;;;;;;5053153;28;20392;-66
2023/03/17 07:01:29;;;;;;;;;;;;;;;;;;5069091;28;20011;-65
2023/03/17 07:03:55;;;;;;;;;;;;;;;;;;5069074;28;20403;-61
2023/03/17 07:06:22;;;;;;;;;;;;;;;;;;5071911;28;19909;-65
2023/03/17 07:08:48;;;;;;;;;;;;;;;;;;5053422;28;20300;-65
2023/03/17 07:11:14;;;;;;;;;;;;;;;;;;5053477;28;19984;-64
2023/03/17 07:13:40;;;;;;;;;;;;;;;;;;5053546;28;20015;-64
2023/03/17 07:16:06;;;;;;;;;;;;;;;;;;5053334;28;19905;-65
2023/03/17 07:18:33;;;;;;;;;;;;;;;;;;5045467;28;19909;-62
2023/03/17 07:20:59;;;;;;;;;;;;;;;;;;5034447;28;19909;-64
2023/03/17 07:23:25;;;;;;;;;;;;;;;;;;5068449;28;19905;-61
2023/03/17 07:25:51;;;;;;;;;;;;;;;;;;5069077;28;19912;-62
2023/03/17 07:28:18;;;;;;;;;;;;;;;;;;5053639;28;20380;-64
2023/03/17 07:30:45;;;;;;;;;;;;;;;;;;5052357;28;19911;-64
2023/03/17 07:33:11;;;;;;;;;;;;;;;;;;5015934;28;19909;-64
2023/03/17 07:35:37;;;;;;;;;;;;;;;;;;5015992;28;19912;-64
2023/03/17 07:38:04;;;;;;;;;;;;;;;;;;5027114;28;19912;-64
2023/03/17 07:40:30;;;;;;;;;;;;;;;;;;5081780;28;20391;-65
2023/03/17 07:42:55;;;;;;;;;;;;;;;;;;5053389;28;20392;-63
2023/03/17 07:45:21;;;;;;;;;;;;;;;;;;5053067;28;19912;-64
2023/03/17 07:47:47;;;;;;;;;;;;;;;;;;5068710;28;19950;-64
2023/03/17 07:50:14;;;;;;;;;;;;;;;;;;5052885;28;19905;-64
2023/03/17 07:52:41;;;;;;;;;;;;;;;;;;5052502;28;20360;-65
2023/03/17 07:55:09;;;;;;;;;;;;;;;;;;5052616;28;19904;-64
2023/03/17 07:57:35;;;;;;;;;;;;;;;;;;5035371;28;20007;-60
2023/03/17 08:00:01;;;;;;;;;;;;;;;;;;5053311;28;19936;-64
2023/03/17 08:02:27;;;;;;;;;;;;;;;;;;5053011;28;19940;-65
2023/03/17 08:04:52;;;;;;;;;;;;;;;;;;5052479;28;20379;-64
2023/03/17 08:07:19;;;;;;;;;;;;;;;;;;5053016;28;19995;-64
2023/03/17 08:09:45;;;;;;;;;;;;;;;;;;5052611;28;19920;-60
2023/03/17 08:12:11;;;;;;;;;;;;;;;;;;5053034;28;19908;-63
2023/03/17 08:14:37;;;;;;;;;;;;;;;;;;5052482;28;19905;-64
2023/03/17 08:17:03;;;;;;;;;;;;;;;;;;5035280;28;19907;-63
2023/03/17 08:19:29;;;;;;;;;;;;;;;;;;5052627;28;19913;-64
2023/03/17 08:21:55;;;;;;;;;;;;;;;;;;5034255;28;19904;-63
2023/03/17 08:24:21;;;;;;;;;;;;;;;;;;5034372;28;20364;-62
2023/03/17 08:26:48;;;;;;;;;;;;;;;;;;5067742;28;19905;-63
2023/03/17 08:29:14;;;;;;;;;;;;;;;;;;5067705;28;19905;-64
2023/03/17 08:31:40;;;;;;;;;;;;;;;;;;5052656;28;19968;-64
2023/03/17 08:34:06;;;;;;;;;;;;;;;;;;5052078;28;19909;-63
2023/03/17 08:36:33;;;;;;;;;;;;;;;;;;5067663;28;19904;-65
2023/03/17 08:38:58;;;;;;;;;;;;;;;;;;5052493;28;19904;-63
2023/03/17 08:41:25;;;;;;;;;;;;;;;;;;5067554;28;20007;-65
2023/03/17 08:43:51;;;;;;;;;;;;;;;;;;5052212;28;19912;-66
2023/03/17 08:46:17;;;;;;;;;;;;;;;;;;5051887;28;19904;-65
2023/03/17 08:48:44;;;;;;;;;;;;;;;;;;5052053;28;20027;-65
2023/03/17 08:51:09;;;;;;;;;;;;;;;;;;5052053;28;19908;-65
2023/03/17 08:53:36;;;;;;;;;;;;;;;;;;5066870;28;19920;-64
2023/03/17 08:56:03;;;;;;;;;;;;;;;;;;5051972;28;19912;-65
2023/03/17 08:58:29;;;;;;;;;;;;;;;;;;5052191;28;19919;-66
2023/03/17 09:00:55;;;;;;;;;;;;;;;;;;5051871;28;20007;-65
2023/03/17 09:03:21;;;;;;;;;;;;;;;;;;5067056;28;20260;-66
2023/03/17 09:05:47;;;;;;;;;;;;;;;;;;5052153;28;19904;-66
2023/03/17 09:08:13;;;;;;;;;;;;;;;;;;5052319;28;19913;-63
2023/03/17 09:10:39;;;;;;;;;;;;;;;;;;5052182;28;19909;-65
2023/03/17 09:13:05;;;;;;;;;;;;;;;;;;5067701;28;20009;-65
2023/03/17 09:15:31;;;;;;;;;;;;;;;;;;5067542;28;19952;-65
2023/03/17 09:17:57;;;;;;;;;;;;;;;;;;5051043;28;20587;-64
2023/03/17 09:20:23;;;;;;;;;;;;;;;;;;5074451;28;19992;-65
2023/03/17 09:22:49;;;;;;;;;;;;;;;;;;5055520;28;19991;-64
2023/03/17 09:25:15;;;;;;;;;;;;;;;;;;5055605;28;19904;-63
2023/03/17 09:27:42;;;;;;;;;;;;;;;;;;5055939;28;19905;-65
2023/03/17 09:30:15;;;;;;;;;;;;;;;;;;5056057;28;19940;-65
2023/03/17 09:32:41;;;;;;;;;;;;;;;;;;5054858;28;19931;-63
2023/03/17 09:35:07;;;;;;;;;;;;;;;;;;5055655;28;19908;-63
2023/03/17 09:37:33;;;;;;;;;;;;;;;;;;5071401;28;19958;-63
2023/03/17 09:39:59;;;;;;;;;;;;;;;;;;5055977;28;19991;-63
2023/03/17 09:42:25;;;;;;;;;;;;;;;;;;5055885;28;19912;-61
2023/03/17 09:44:51;;;;;;;;;;;;;;;;;;5055652;28;20373;-64
2023/03/17 09:47:17;;;;;;;;;;;;;;;;;;5070960;28;19904;-65
2023/03/17 09:49:43;;;;;;;;;;;;;;;;;;5070874;28;19978;-64
2023/03/17 09:52:10;;;;;;;;;;;;;;;;;;5070823;28;19995;-65
2023/03/17 09:54:37;;;;;;;;;;;;;;;;;;5070242;28;19947;-63
2023/03/17 09:57:04;;;;;;;;;;;;;;;;;;5070876;28;19951;-64
2023/03/17 09:59:30;;;;;;;;;;;;;;;;;;5054829;28;19908;-64
2023/03/17 10:01:56;;;;;;;;;;;;;;;;;;5054849;28;20391;-61
2023/03/17 10:04:22;;;;;;;;;;;;;;;;;;5070811;28;20192;-63
2023/03/17 10:06:48;;;;;;;;;;;;;;;;;;5055066;28;19905;-63
2023/03/17 10:09:15;;;;;;;;;;;;;;;;;;5054996;28;19908;-63
2023/03/17 10:11:41;;;;;;;;;;;;;;;;;;5070427;28;19916;-64
2023/03/17 10:14:08;;;;;;;;;;;;;;;;;;5054835;28;20292;-65
2023/03/17 10:16:34;;;;;;;;;;;;;;;;;;5054751;28;19904;-64
2023/03/17 10:19:00;;;;;;;;;;;;;;;;;;5054659;28;20353;-63
2023/03/17 10:21:25;;;;;;;;;;;;;;;;;;5054750;28;20031;-64
2023/03/17 10:23:51;;;;;;;;;;;;;;;;;;5054183;28;19904;-65
2023/03/17 10:26:17;;;;;;;;;;;;;;;;;;5069813;28;19919;-66
2023/03/17 10:28:43;;;;;;;;;;;;;;;;;;5054473;28;20307;-63
2023/03/17 10:31:09;;;;;;;;;;;;;;;;;;5054113;28;19908;-62
2023/03/17 10:33:35;;;;;;;;;;;;;;;;;;5053463;28;19916;-67
2023/03/17 10:36:01;;;;;;;;;;;;;;;;;;5054306;28;20331;-64
2023/03/17 10:38:27;;;;;;;;;;;;;;;;;;5069448;28;20361;-64
2023/03/17 10:40:53;;;;;;;;;;;;;;;;;;5053591;28;19904;-66
2023/03/17 10:43:19;;;;;;;;;;;;;;;;;;5053977;28;19912;-64
2023/03/17 10:45:45;;;;;;;;;;;;;;;;;;5052715;28;19908;-66
2023/03/17 10:48:11;;;;;;;;;;;;;;;;;;5034117;28;19909;-64
2023/03/17 10:50:38;;;;;;;;;;;;;;;;;;5042986;28;19952;-63
2023/03/17 10:53:04;;;;;;;;;;;;;;;;;;5035201;28;19909;-64
2023/03/17 10:55:30;;;;;;;;;;;;;;;;;;5059708;28;20038;-62
2023/03/17 10:57:56;;;;;;;;;;;;;;;;;;5053649;28;19940;-65
2023/03/17 11:00:23;;;;;;;;;;;;;;;;;;5076798;28;20338;-64
2023/03/17 11:02:49;;;;;;;;;;;;;;;;;;5053794;28;19916;-65
2023/03/17 11:05:16;;;;;;;;;;;;;;;;;;5053546;28;20380;-65
2023/03/17 11:07:42;;;;;;;;;;;;;;;;;;5069463;28;19999;-65
2023/03/17 11:10:07;;;;;;;;;;;;;;;;;;5053801;28;19950;-66
2023/03/17 11:12:33;;;;;;;;;;;;;;;;;;5053904;28;19909;-64
2023/03/17 11:14:59;;;;;;;;;;;;;;;;;;5053474;28;19908;-66
2023/03/17 11:17:25;;;;;;;;;;;;;;;;;;5053873;28;19912;-64
2023/03/17 11:19:51;;;;;;;;;;;;;;;;;;5053844;28;20514;-65
2023/03/17 11:22:18;;;;;;;;;;;;;;;;;;5053812;28;20011;-63
2023/03/17 11:24:44;;;;;;;;;;;;;;;;;;5069038;28;19959;-64
2023/03/17 11:27:10;;;;;;;;;;;;;;;;;;5069248;28;19935;-65
2023/03/17 11:29:36;;;;;;;;;;;;;;;;;;5069162;28;19999;-64
2023/03/17 11:32:02;;;;;;;;;;;;;;;;;;5069003;28;19911;-63
2023/03/17 11:34:28;;;;;;;;;;;;;;;;;;5069493;28;19904;-65
2023/03/17 11:36:54;;;;;;;;;;;;;;;;;;5053730;28;20289;-64
2023/03/17 11:39:20;;;;;;;;;;;;;;;;;;5053484;28;19931;-63
2023/03/17 11:41:46;;;;;;;;;;;;;;;;;;5069196;28;19958;-62
2023/03/17 11:44:12;;;;;;;;;;;;;;;;;;5067496;28;19916;-64
2023/03/17 11:46:38;;;;;;;;;;;;;;;;;;5053011;28;19965;-65
2023/03/17 11:49:04;;;;;;;;;;;;;;;;;;5053742;28;19905;-63
2023/03/17 11:51:30;;;;;;;;;;;;;;;;;;5052731;28;19909;-64
2023/03/17 11:53:56;;;;;;;;;;;;;;;;;;5066098;28;19934;-64
2023/03/17 11:56:22;;;;;;;;;;;;;;;;;;5052799;28;19905;-63
2023/03/17 11:58:48;;;;;;;;;;;;;;;;;;5068164;28;19931;-64
2023/03/17 12:01:14;;;;;;;;;;;;;;;;;;5066528;28;20003;-64
2023/03/17 12:03:41;;;;;;;;;;;;;;;;;;5097798;22;19977;-59
2023/03/17 12:06:07;;;;;;;;;;;;;;;;;;5089932;28;20359;-59
2023/03/17 12:08:33;;;;;;;;;;;;;;;;;;5091352;28;20360;-58
2023/03/17 12:10:59;;;;;;;;;;;;;;;;;;5086846;28;19904;-60
2023/03/17 12:13:25;;;;;;;;;;;;;;;;;;5089314;28;20003;-60
2023/03/17 12:15:51;;;;;;;;;;;;;;;;;;5098196;28;19939;-59
2023/03/17 12:18:17;;;;;;;;;;;;;;;;;;5094664;28;19904;-59
2023/03/17 12:20:43;;;;;;;;;;;;;;;;;;5095084;28;19965;-59
2023/03/17 12:23:09;;;;;;;;;;;;;;;;;;5083509;28;19909;-57
2023/03/17 12:25:36;;;;;;;;;;;;;;;;;;5071737;28;19911;-56
2023/03/17 12:28:02;;;;;;;;;;;;;;;;;;5064753;28;19908;-55
2023/03/17 12:30:29;;;;;;;;;;;;;;;;;;5071716;28;19905;-59
2023/03/17 12:32:54;;;;;;;;;;;;;;;;;;5071167;28;20296;-59
2023/03/17 12:35:20;;;;;;;;;;;;;;;;;;5070128;28;19951;-59
2023/03/17 12:37:46;;;;;;;;;;;;;;;;;;5071675;28;20355;-62
2023/03/17 12:40:13;;;;;;;;;;;;;;;;;;5071642;28;20007;-58
2023/03/17 12:42:39;;;;;;;;;;;;;;;;;;5071604;28;19915;-62
2023/03/17 12:45:05;;;;;;;;;;;;;;;;;;5071334;28;20368;-62
2023/03/17 12:47:31;;;;;;;;;;;;;;;;;;5071251;28;19998;-56
2023/03/17 12:49:57;;;;;;;;;;;;;;;;;;5069923;28;19947;-62
2023/03/17 12:52:23;;;;;;;;;;;;;;;;;;5071200;28;19908;-57
2023/03/17 12:54:50;;;;;;;;;;;;;;;;;;5071190;28;19910;-57
2023/03/17 12:57:16;;;;;;;;;;;;;;;;;;5071403;28;20316;-58
2023/03/17 12:59:42;;;;;;;;;;;;;;;;;;5071365;28;19946;-58
2023/03/17 13:02:08;;;;;;;;;;;;;;;;;;5071460;28;20000;-57
2023/03/17 13:04:35;;;;;;;;;;;;;;;;;;5070861;28;20310;-60
2023/03/17 13:07:01;;;;;;;;;;;;;;;;;;5071643;28;20383;-55
2023/03/17 13:09:27;;;;;;;;;;;;;;;;;;5071773;28;19940;-58
2023/03/17 13:11:53;;;;;;;;;;;;;;;;;;5075476;28;19905;-56
2023/03/17 13:14:20;;;;;;;;;;;;;;;;;;5091487;28;19914;-58
2023/03/17 13:16:46;;;;;;;;;;;;;;;;;;5091464;28;19988;-54
2023/03/17 13:19:12;;;;;;;;;;;;;;;;;;5091687;28;20215;-58
2023/03/17 13:21:38;;;;;;;;;;;;;;;;;;5090381;28;19946;-59
2023/03/17 13:24:04;;;;;;;;;;;;;;;;;;5073313;28;20368;-60
2023/03/17 13:26:30;;;;;;;;;;;;;;;;;;5071597;28;19905;-55
2023/03/17 13:28:56;;;;;;;;;;;;;;;;;;5071256;28;19974;-59
2023/03/17 13:31:22;;;;;;;;;;;;;;;;;;5071195;28;20373;-59
2023/03/17 13:33:47;;;;;;;;;;;;;;;;;;5069507;28;19978;-61
2023/03/17 13:36:14;;;;;;;;;;;;;;;;;;5071399;28;20360;-61
2023/03/17 13:38:40;;;;;;;;;;;;;;;;;;5070973;28;20442;-59
2023/03/17 13:41:06;;;;;;;;;;;;;;;;;;5071296;28;19908;-55
2023/03/17 13:43:32;;;;;;;;;;;;;;;;;;5069606;28;19912;-57
2023/03/17 13:45:59;;;;;;;;;;;;;;;;;;5070699;28;19905;-57
2023/03/17 13:48:26;;;;;;;;;;;;;;;;;;5070938;28;20293;-57
2023/03/17 13:50:52;;;;;;;;;;;;;;;;;;5069835;28;19904;-60
2023/03/17 13:53:17;;;;;;;;;;;;;;;;;;5071762;28;19915;-61
2023/03/17 13:55:44;;;;;;;;;;;;;;;;;;5070496;28;19904;-56
2023/03/17 13:58:13;;;;;;;;;;;;;;;;;;5069147;28;19908;-57
2023/03/17 14:00:39;;;;;;;;;;;;;;;;;;5055037;28;19944;-62
2023/03/17 14:03:05;;;;;;;;;;;;;;;;;;5068807;28;19952;-56
2023/03/17 14:05:31;;;;;;;;;;;;;;;;;;5070706;28;20007;-60
2023/03/17 14:07:57;;;;;;;;;;;;;;;;;;5073465;28;19908;-61
2023/03/17 14:10:23;;;;;;;;;;;;;;;;;;5074333;28;19931;-60
2023/03/17 14:12:49;;;;;;;;;;;;;;;;;;5086432;28;20323;-60
2023/03/17 14:15:15;;;;;;;;;;;;;;;;;;5081183;28;19947;-58
2023/03/17 14:17:41;;;;;;;;;;;;;;;;;;5074178;28;19908;-58
2023/03/17 14:20:07;;;;;;;;;;;;;;;;;;5074376;28;19938;-60
2023/03/17 14:22:33;;;;;;;;;;;;;;;;;;5072546;28;19905;-58
2023/03/17 14:24:59;;;;;;;;;;;;;;;;;;5073679;28;19955;-58
2023/03/17 14:27:24;;;;;;;;;;;;;;;;;;5073862;28;20307;-59
2023/03/17 14:29:51;;;;;;;;;;;;;;;;;;5073869;28;19904;-59
2023/03/17 14:32:17;;;;;;;;;;;;;;;;;;5072809;28;19908;-60
2023/03/17 14:34:43;;;;;;;;;;;;;;;;;;5067140;28;19995;-59
2023/03/17 14:37:09;;;;;;;;;;;;;;;;;;5081504;28;19905;-56
2023/03/17 14:39:35;;;;;;;;;;;;;;;;;;5080004;28;19919;-58
2023/03/17 14:42:01;;;;;;;;;;;;;;;;;;5077432;28;19905;-59
2023/03/17 14:44:27;;;;;;;;;;;;;;;;;;5058163;28;19928;-60
2023/03/17 14:46:53;;;;;;;;;;;;;;;;;;5054087;28;19927;-57
2023/03/17 14:49:19;;;;;;;;;;;;;;;;;;5054079;28;20441;-58
2023/03/17 14:51:45;;;;;;;;;;;;;;;;;;5053870;28;19934;-60
2023/03/17 14:54:11;;;;;;;;;;;;;;;;;;5053079;28;20339;-58
2023/03/17 14:56:37;;;;;;;;;;;;;;;;;;5053667;28;19912;-59
2023/03/17 14:59:02;;;;;;;;;;;;;;;;;;5053841;28;19904;-59
2023/03/17 15:01:28;;;;;;;;;;;;;;;;;;5053444;28;19912;-60
2023/03/17 15:03:55;;;;;;;;;;;;;;;;;;5057835;28;19919;-58
2023/03/17 15:06:21;;;;;;;;;;;;;;;;;;5067890;28;19915;-60
2023/03/17 15:08:47;;;;;;;;;;;;;;;;;;5064436;28;19936;-60
2023/03/17 15:11:12;;;;;;;;;;;;;;;;;;5061586;28;19919;-62
2023/03/17 15:13:38;;;;;;;;;;;;;;;;;;5064706;28;19920;-59
2023/03/17 15:16:05;;;;;;;;;;;;;;;;;;5061017;28;19970;-55
2023/03/17 15:18:31;;;;;;;;;;;;;;;;;;5062411;28;19916;-60
2023/03/17 15:20:58;;;;;;;;;;;;;;;;;;5061675;28;19920;-60
2023/03/17 15:23:24;;;;;;;;;;;;;;;;;;5063742;28;20376;-60
2023/03/17 15:25:54;;;;;;;;;;;;;;;;;;5055924;28;19912;-58
2023/03/17 15:28:20;;;;;;;;;;;;;;;;;;5058951;28;19916;-61
2023/03/17 15:30:46;;;;;;;;;;;;;;;;;;5063829;28;20270;-61
2023/03/17 15:33:12;;;;;;;;;;;;;;;;;;5061352;28;19956;-60
2023/03/17 15:35:37;;;;;;;;;;;;;;;;;;5062812;28;19912;-58
2023/03/17 15:38:03;;;;;;;;;;;;;;;;;;5061303;28;20382;-55
2023/03/17 15:40:29;;;;;;;;;;;;;;;;;;5057250;28;19956;-60
2023/03/17 15:42:56;;;;;;;;;;;;;;;;;;5052103;28;20003;-57